KCOF/COF METAR and TAF weather

Enter ICAO airport designator
Station Type Date Time Source
KCOF METAR 2018/07/21 10:56 UTC NOAA

KCOF 211056Z AUTO 23008KT 10SM OVC160 27/26 A2995 RMK AO2 SLP146 T02660259


Station Type Date Time Source
KCOF Decoded METAR 2018/07/21 10:56 UTC NOAA

Cocoa / Patrick Air Force Base, FL, United States (KCOF) 28-14N 080-36W 3M
Jul 21, 2018 - 06:56 AM EDT / 2018.07.21 1056 UTC
Wind: from the SW (230 degrees) at 9 MPH (8 KT):0
Visibility: 10 mile(s):0
Sky conditions: overcast
Temperature: 79.9 F (26.6 C)
Dew Point: 78.6 F (25.9 C)
Relative Humidity: 95%
Pressure (altimeter): 29.95 in. Hg (1014 hPa)
ob: KCOF 211056Z AUTO 23008KT 10SM OVC160 27/26 A2995 RMK AO2 SLP146 T02660259
cycle: 11

Station Type Date Time Source
KCOF TAF 2018/07/21 10:03 UTC NOAA

TAF KCOF 211000Z 2110/2216 24008KT 9999 SCT035 BKN220 OVC300 QNH2992INS
BECMG 2118/2119 23008KT 9999 VCTS SCT025CB BKN035 OVC300 QNH2987INS
TEMPO 2118/2122 24012G30KT 3200 TSRA BKN025CB OVC035
BECMG 2203/2204 22008KT 9999 NSW SCT030 QNH2987INS TX32/2119Z TN25/2209Z


Example: see airport list